Time;durP1;ratioP1;P1;durP2;ratioP2;P2;SDS_P1;SDS_P2;PMS_P1;PMS_P2;Temp;Humidity;BMP_temperature;BMP_pressure;BME280_temperature;BME280_humidity;BME280_pressure;Samples;Min_cycle;Max_cycle;Signal;HPM_P1;HPM_P2
2021/05/27 00:01:33;;;;;;;5.60;1.33;;;10.20;99.60;;;;;;5088853;28;20210;-82
2021/05/27 00:04:01;;;;;;;2.03;1.85;;;10.10;99.80;;;;;;5073136;28;20202;-83
2021/05/27 00:06:31;;;;;;;1.60;1.50;;;10.10;99.90;;;;;;5079570;28;20186;-84
2021/05/27 00:09:00;;;;;;;1.42;1.33;;;10.10;99.90;;;;;;5069350;28;20199;-83
2021/05/27 00:11:44;;;;;;;2.10;2.00;;;10.20;99.90;;;;;;5086816;28;20250;-83
2021/05/27 00:14:14;;;;;;;5.45;1.85;;;10.10;99.90;;;;;;5070232;28;20744;-83
2021/05/27 00:16:44;;;;;;;1.88;1.77;;;10.20;99.90;;;;;;5069879;28;20191;-83
2021/05/27 00:19:13;;;;;;;1.90;1.80;;;9.90;99.90;;;;;;5082595;28;20297;-83
2021/05/27 00:21:43;;;;;;;1.85;1.65;;;10.00;99.90;;;;;;5072785;28;20230;-83
2021/05/27 00:24:17;;;;;;;1.95;1.85;;;10.10;99.90;;;;;;5085598;28;20316;-84
2021/05/27 00:26:46;;;;;;;3.05;1.70;;;10.00;99.90;;;;;;5079132;28;20191;-84
2021/05/27 00:29:14;;;;;;;2.00;1.80;;;9.90;99.90;;;;;;5071196;28;20226;-83
2021/05/27 00:31:40;;;;;;;1.65;1.55;;;10.00;99.90;;;;;;5087998;28;20206;-84
2021/05/27 00:34:07;;;;;;;1.73;1.63;;;10.10;99.90;;;;;;5089457;28;20583;-84
2021/05/27 00:36:33;;;;;;;1.80;1.70;;;9.90;99.90;;;;;;5083716;28;20198;-84
2021/05/27 00:39:00;;;;;;;3.53;1.92;;;9.90;99.90;;;;;;5075660;28;20203;-84
2021/05/27 00:41:27;;;;;;;2.88;2.00;;;10.00;99.90;;;;;;5073470;28;20230;-84
2021/05/27 00:43:54;;;;;;;2.58;1.85;;;10.00;99.90;;;;;;5071274;28;20263;-84
2021/05/27 00:46:21;;;;;;;2.22;2.00;;;9.90;99.90;;;;;;5081116;28;20190;-83
2021/05/27 00:49:00;;;;;;;2.20;2.00;;;10.00;99.90;;;;;;5081149;28;20203;-83
2021/05/27 00:51:28;;;;;;;2.15;1.98;;;10.00;99.90;;;;;;5081655;28;20230;-83
2021/05/27 00:53:56;;;;;;;2.65;2.13;;;10.10;99.90;;;;;;5080158;28;20215;-83
2021/05/27 00:56:23;;;;;;;2.30;2.10;;;10.20;99.80;;;;;;5069622;28;20740;-83
2021/05/27 00:58:50;;;;;;;1.95;1.85;;;10.10;99.70;;;;;;5075738;28;20187;-83
2021/05/27 01:01:17;;;;;;;1.52;1.42;;;10.10;99.70;;;;;;5080619;28;20231;-83
2021/05/27 01:03:46;;;;;;;2.92;2.08;;;10.00;99.70;;;;;;5071259;28;20192;-83
2021/05/27 01:06:14;;;;;;;2.50;2.20;;;10.10;99.90;;;;;;5080162;28;20230;-83
2021/05/27 01:08:41;;;;;;;2.65;1.95;;;10.10;99.90;;;;;;5083669;28;20210;-83
2021/05/27 01:11:09;;;;;;;2.33;2.13;;;10.10;99.70;;;;;;5080857;28;20255;-83
2021/05/27 01:13:38;;;;;;;2.40;2.20;;;10.00;99.70;;;;;;5081273;28;20656;-84
2021/05/27 01:16:11;;;;;;;1.80;1.70;;;10.10;99.90;;;;;;5074927;28;20198;-82
2021/05/27 01:18:39;;;;;;;3.65;2.42;;;9.90;99.90;;;;;;5068605;28;20538;-83
2021/05/27 01:21:09;;;;;;;2.28;2.08;;;10.00;99.70;;;;;;5074569;28;20311;-82
2021/05/27 01:23:38;;;;;;;1.90;1.80;;;10.10;99.60;;;;;;5079846;28;20383;-83
2021/05/27 01:26:10;;;;;;;4.03;1.80;;;10.00;99.60;;;;;;5073204;28;20187;-82
2021/05/27 01:28:38;;;;;;;2.00;1.90;;;9.90;99.90;;;;;;5088657;28;20205;-83
2021/05/27 01:31:07;;;;;;;1.90;1.80;;;9.80;99.90;;;;;;5085619;28;20199;-82
2021/05/27 01:33:38;;;;;;;2.03;1.83;;;9.70;99.90;;;;;;5082034;28;20199;-82
2021/05/27 01:36:08;;;;;;;2.20;2.00;;;9.60;99.90;;;;;;5072766;28;20280;-83
2021/05/27 01:38:37;;;;;;;3.65;2.67;;;9.70;99.90;;;;;;5079381;28;20736;-82
2021/05/27 01:41:05;;;;;;;1.55;1.45;;;9.70;99.90;;;;;;5081291;28;20199;-83
2021/05/27 01:43:34;;;;;;;2.15;1.88;;;9.70;99.90;;;;;;5087263;28;20562;-83
2021/05/27 01:46:04;;;;;;;2.15;1.95;;;9.70;99.90;;;;;;5079518;28;20226;-83
2021/05/27 01:48:35;;;;;;;1.73;1.63;;;9.70;99.90;;;;;;5086351;28;20199;-83
2021/05/27 01:51:08;;;;;;;2.47;2.28;;;9.70;99.90;;;;;;5087563;28;20571;-83
2021/05/27 01:53:38;;;;;;;2.10;1.90;;;9.80;99.90;;;;;;5086442;28;20232;-83
2021/05/27 01:56:07;;;;;;;2.75;2.35;;;9.90;99.90;;;;;;5092266;28;20289;-83
2021/05/27 01:58:36;;;;;;;2.10;1.90;;;9.90;99.90;;;;;;5090409;28;20244;-83
2021/05/27 02:01:04;;;;;;;2.80;2.45;;;9.90;99.90;;;;;;5086932;28;20191;-83
2021/05/27 02:03:33;;;;;;;1.80;1.70;;;9.90;99.90;;;;;;5087005;28;20218;-83
2021/05/27 02:06:12;;;;;;;1.88;1.73;;;9.90;99.90;;;;;;5081564;28;20191;-83
2021/05/27 02:11:32;;;;;;;2.63;2.42;;;10.00;99.00;;;;;;5080053;28;20276;-83
2021/05/27 02:14:03;;;;;;;3.03;2.45;;;10.00;99.30;;;;;;5072075;28;20213;-84
2021/05/27 02:16:45;;;;;;;5.03;2.65;;;9.90;99.80;;;;;;5074469;28;20556;-84
2021/05/27 02:19:16;;;;;;;3.50;2.25;;;10.00;99.40;;;;;;5086936;28;20244;-83
2021/05/27 02:21:46;;;;;;;3.03;1.80;;;9.90;99.70;;;;;;5090105;28;20279;-84
2021/05/27 02:24:17;;;;;;;2.00;1.90;;;9.80;99.90;;;;;;5082492;28;20290;-82
2021/05/27 02:26:49;;;;;;;4.10;2.10;;;9.80;99.90;;;;;;5074576;28;20206;-82
2021/05/27 02:29:18;;;;;;;3.90;2.50;;;9.90;99.90;;;;;;5071293;28;20592;-82
2021/05/27 02:31:49;;;;;;;3.22;2.20;;;9.70;99.90;;;;;;5071563;28;20202;-82
2021/05/27 02:34:25;;;;;;;2.00;1.90;;;9.80;99.90;;;;;;5083236;28;20562;-82
2021/05/27 02:36:53;;;;;;;2.30;2.20;;;9.90;99.90;;;;;;5089295;28;20195;-82
2021/05/27 02:39:31;;;;;;;2.47;2.08;;;9.80;99.90;;;;;;5075372;28;20563;-82
2021/05/27 02:42:00;;;;;;;1.92;1.80;;;9.80;99.90;;;;;;5090193;28;20846;-83
2021/05/27 02:44:28;;;;;;;3.13;2.40;;;9.80;99.90;;;;;;5082520;28;20252;-82
2021/05/27 02:47:02;;;;;;;1.98;1.88;;;9.80;99.90;;;;;;5071701;28;20311;-83
2021/05/27 02:49:41;;;;;;;3.78;2.20;;;9.80;99.90;;;;;;5073215;28;20195;-83
2021/05/27 02:52:15;;;;;;;1.85;1.75;;;10.00;99.90;;;;;;5071867;28;20203;-83
2021/05/27 02:54:50;;;;;;;3.05;2.17;;;10.10;99.90;;;;;;5086863;28;20221;-82
2021/05/27 02:57:19;;;;;;;7.05;2.20;;;10.00;99.40;;;;;;5077622;28;20194;-83
2021/05/27 02:59:49;;;;;;;3.15;2.33;;;10.00;99.30;;;;;;5085673;28;20291;-83
2021/05/27 03:02:17;;;;;;;2.25;2.00;;;10.00;99.00;;;;;;5071209;28;20227;-83
2021/05/27 03:04:45;;;;;;;3.85;2.20;;;9.90;99.80;;;;;;5070663;28;20196;-83
2021/05/27 03:07:13;;;;;;;2.58;2.35;;;9.70;99.70;;;;;;5078296;28;20299;-83
2021/05/27 03:09:40;;;;;;;2.40;2.22;;;9.80;99.90;;;;;;5073771;28;20667;-84
2021/05/27 03:12:09;;;;;;;1.80;1.70;;;9.80;99.90;;;;;;5071194;28;20199;-83
2021/05/27 03:14:38;;;;;;;2.20;1.70;;;9.70;99.90;;;;;;5069978;28;20766;-83
2021/05/27 03:17:07;;;;;;;2.55;1.75;;;9.70;99.90;;;;;;5087503;28;20198;-83
2021/05/27 03:19:36;;;;;;;2.00;1.88;;;9.80;99.90;;;;;;5077502;28;20192;-83
2021/05/27 03:22:04;;;;;;;2.15;1.95;;;9.90;99.90;;;;;;5078120;28;20217;-83
2021/05/27 03:24:33;;;;;;;1.55;1.45;;;9.90;99.90;;;;;;5090497;28;20206;-82
2021/05/27 03:27:01;;;;;;;2.00;1.90;;;9.80;99.90;;;;;;5081052;28;20191;-83
2021/05/27 03:29:30;;;;;;;2.03;1.92;;;9.80;99.90;;;;;;5086822;28;20193;-83
2021/05/27 03:32:03;;;;;;;2.75;2.10;;;9.90;99.90;;;;;;5078103;28;20201;-83
2021/05/27 03:34:31;;;;;;;2.08;1.98;;;10.00;99.60;;;;;;5089698;28;20678;-82
2021/05/27 03:37:00;;;;;;;2.03;1.92;;;9.90;99.70;;;;;;5089415;28;20190;-83
2021/05/27 03:39:28;;;;;;;2.63;2.42;;;9.80;99.80;;;;;;5080710;28;20318;-83
2021/05/27 03:41:56;;;;;;;2.42;2.10;;;9.80;99.90;;;;;;5074212;28;20250;-82
2021/05/27 03:44:36;;;;;;;2.40;2.20;;;9.90;99.90;;;;;;5070014;28;20268;-83
2021/05/27 03:47:15;;;;;;;2.38;2.28;;;10.00;99.20;;;;;;5077240;28;20198;-83
2021/05/27 03:49:53;;;;;;;2.45;2.22;;;9.90;99.90;;;;;;5071468;28;20203;-82
2021/05/27 03:52:23;;;;;;;2.08;1.95;;;9.80;99.90;;;;;;5089841;28;20190;-83
2021/05/27 03:54:56;;;;;;;1.92;1.73;;;9.80;99.90;;;;;;5088858;28;20201;-83
2021/05/27 03:57:23;;;;;;;2.00;1.90;;;9.90;99.90;;;;;;5089620;28;20190;-82
2021/05/27 04:02:41;;;;;;;2.67;1.95;;;9.80;99.90;;;;;;5070335;28;20309;-83
2021/05/27 04:08:06;;;;;;;2.20;2.10;;;9.80;99.90;;;;;;5050515;28;20875;-83
2021/05/27 04:10:33;;;;;;;2.85;2.30;;;9.80;99.90;;;;;;5071469;28;20731;-83
2021/05/27 04:13:00;;;;;;;2.25;2.05;;;9.80;99.90;;;;;;5090726;28;20226;-82
2021/05/27 04:15:29;;;;;;;2.72;2.53;;;9.80;99.90;;;;;;5071546;28;20207;-82
2021/05/27 04:17:58;;;;;;;2.97;2.10;;;10.00;99.60;;;;;;5071298;28;20626;-83
2021/05/27 04:20:27;;;;;;;4.78;2.25;;;10.10;99.30;;;;;;5086985;28;20291;-83
2021/05/27 04:22:54;;;;;;;2.75;2.30;;;10.20;99.20;;;;;;5070124;28;20556;-83
2021/05/27 04:25:23;;;;;;;2.00;1.90;;;10.10;99.10;;;;;;5071461;28;20194;-82
2021/05/27 04:27:50;;;;;;;2.45;2.25;;;9.90;99.20;;;;;;5081013;28;20206;-83
2021/05/27 04:30:18;;;;;;;2.35;2.15;;;10.00;99.00;;;;;;5073383;28;20190;-84
2021/05/27 04:32:55;;;;;;;2.33;2.13;;;10.00;98.80;;;;;;5085040;28;20285;-83
2021/05/27 04:35:24;;;;;;;2.35;2.13;;;9.80;99.30;;;;;;5088886;28;20551;-82
2021/05/27 04:37:51;;;;;;;2.40;2.20;;;9.80;99.80;;;;;;5088529;28;20221;-82
2021/05/27 04:40:19;;;;;;;3.22;3.03;;;9.90;99.90;;;;;;5078147;28;20747;-82
2021/05/27 04:42:45;;;;;;;2.85;2.45;;;10.10;99.30;;;;;;5075268;28;20235;-82
2021/05/27 04:45:13;;;;;;;2.30;2.10;;;10.00;98.90;;;;;;5087408;28;20229;-83
2021/05/27 04:47:40;;;;;;;2.03;1.90;;;10.20;98.80;;;;;;5086303;28;20195;-83
2021/05/27 04:50:10;;;;;;;2.65;2.45;;;10.00;98.60;;;;;;5072467;28;20415;-83
2021/05/27 04:52:37;;;;;;;2.60;2.40;;;9.80;99.50;;;;;;5070253;28;20247;-83
2021/05/27 04:55:05;;;;;;;2.40;2.20;;;9.60;99.90;;;;;;5080965;28;20199;-83
2021/05/27 04:57:32;;;;;;;2.80;2.60;;;9.70;99.90;;;;;;5082839;28;20222;-83
2021/05/27 04:59:58;;;;;;;3.30;3.10;;;9.90;99.90;;;;;;5092238;28;20547;-83
2021/05/27 05:02:25;;;;;;;2.50;2.20;;;9.60;99.90;;;;;;5076840;28;20223;-83
2021/05/27 05:04:52;;;;;;;3.53;2.50;;;9.70;99.90;;;;;;5072215;28;20206;-83
2021/05/27 05:07:19;;;;;;;3.10;2.90;;;9.80;99.90;;;;;;5079091;28;20195;-83
2021/05/27 05:09:46;;;;;;;2.78;2.58;;;9.90;99.90;;;;;;5082202;28;20228;-83
2021/05/27 05:12:13;;;;;;;2.72;2.53;;;10.00;99.90;;;;;;5073761;28;20664;-83
2021/05/27 05:14:39;;;;;;;4.97;3.03;;;10.00;99.40;;;;;;5082258;28;20215;-84
2021/05/27 05:17:06;;;;;;;2.38;2.08;;;9.90;99.60;;;;;;5084014;28;20199;-82
2021/05/27 05:19:32;;;;;;;2.80;2.60;;;10.20;99.10;;;;;;5080375;28;20187;-83
2021/05/27 05:21:59;;;;;;;2.65;2.45;;;10.20;98.70;;;;;;5092055;28;20229;-83
2021/05/27 05:24:26;;;;;;;2.60;2.40;;;10.30;98.50;;;;;;5083969;28;21280;-83
2021/05/27 05:26:53;;;;;;;3.33;3.00;;;10.50;98.40;;;;;;5086029;28;20252;-84
2021/05/27 05:29:19;;;;;;;3.20;2.90;;;10.60;98.10;;;;;;5091133;28;20203;-82
2021/05/27 05:31:46;;;;;;;2.57;2.37;;;10.70;98.10;;;;;;5079174;28;20290;-83
2021/05/27 05:34:13;;;;;;;2.60;2.40;;;10.60;97.70;;;;;;5084058;28;20703;-84
2021/05/27 05:36:40;;;;;;;3.28;2.97;;;10.60;97.30;;;;;;5088663;28;20656;-84
2021/05/27 05:39:07;;;;;;;5.10;3.60;;;10.50;96.60;;;;;;5092165;28;20250;-84
2021/05/27 05:41:35;;;;;;;2.97;2.78;;;10.60;97.20;;;;;;5079556;28;20260;-84
2021/05/27 05:44:03;;;;;;;2.20;2.10;;;10.70;96.60;;;;;;5089374;28;20337;-83
2021/05/27 05:46:30;;;;;;;3.90;2.63;;;10.60;96.40;;;;;;5074828;28;20195;-84
2021/05/27 05:48:57;;;;;;;3.13;2.87;;;10.50;96.30;;;;;;5079656;28;20711;-84
2021/05/27 05:51:23;;;;;;;2.95;2.75;;;10.70;96.50;;;;;;5082682;28;20962;-84
2021/05/27 05:53:49;;;;;;;3.40;3.10;;;10.80;96.20;;;;;;5088316;28;20183;-83
2021/05/27 05:56:16;;;;;;;2.50;2.30;;;10.90;95.60;;;;;;5091295;28;20679;-84
2021/05/27 05:58:44;;;;;;;3.85;2.83;;;10.80;94.60;;;;;;5085033;28;20620;-84
2021/05/27 06:01:10;;;;;;;2.50;2.20;;;10.80;93.30;;;;;;5091244;28;20628;-84
2021/05/27 06:03:38;;;;;;;2.63;2.40;;;10.90;94.20;;;;;;5092213;28;20233;-83
2021/05/27 06:06:05;;;;;;;3.90;2.50;;;11.00;94.50;;;;;;5092243;28;20993;-84
2021/05/27 06:08:31;;;;;;;1.83;1.73;;;11.10;94.40;;;;;;5090109;28;20621;-85
2021/05/27 06:10:58;;;;;;;2.55;2.08;;;11.10;93.00;;;;;;5091238;28;20678;-84
2021/05/27 06:13:24;;;;;;;3.03;2.77;;;10.90;93.30;;;;;;5091641;28;20205;-84
2021/05/27 06:15:53;;;;;;;2.27;2.00;;;11.10;93.70;;;;;;5065578;28;21185;-84
2021/05/27 06:18:19;;;;;;;3.33;1.73;;;11.30;93.30;;;;;;5076704;28;20617;-85
2021/05/27 06:20:49;;;;;;;2.50;2.30;;;11.30;91.80;;;;;;5080019;28;20203;-85
2021/05/27 06:23:15;;;;;;;2.33;2.13;;;11.10;91.90;;;;;;5069595;28;20696;-83
2021/05/27 06:25:42;;;;;;;2.40;2.20;;;11.10;91.30;;;;;;5086578;28;20621;-85
2021/05/27 06:28:08;;;;;;;2.37;1.80;;;11.10;90.60;;;;;;5087888;28;20616;-85
2021/05/27 06:30:35;;;;;;;2.70;2.50;;;11.30;91.50;;;;;;5095031;28;20636;-84
2021/05/27 06:33:03;;;;;;;2.93;2.00;;;11.30;90.60;;;;;;5090177;28;20662;-85
2021/05/27 06:35:30;;;;;;;2.40;2.30;;;11.50;90.80;;;;;;5091072;28;20621;-83
2021/05/27 06:37:59;;;;;;;1.90;1.80;;;11.50;90.20;;;;;;5083820;28;20609;-84
2021/05/27 06:40:27;;;;;;;2.50;2.30;;;11.60;90.70;;;;;;5078072;28;20667;-84
2021/05/27 06:43:00;;;;;;;6.27;2.43;;;11.80;91.40;;;;;;5091142;28;20671;-84
2021/05/27 06:45:27;;;;;;;2.87;2.20;;;11.80;90.60;;;;;;5086137;28;21020;-84
2021/05/27 06:47:54;;;;;;;2.50;2.30;;;12.00;90.50;;;;;;5082737;28;20612;-85
2021/05/27 06:50:35;;;;;;;1.80;1.70;;;11.90;89.80;;;;;;5087092;28;20659;-84
2021/05/27 06:53:15;;;;;;;1.90;1.63;;;11.70;87.20;;;;;;5079974;28;20686;-85
2021/05/27 06:55:43;;;;;;;1.80;1.70;;;11.70;87.60;;;;;;5082427;28;21188;-84
2021/05/27 06:58:10;;;;;;;2.33;2.13;;;11.80;88.40;;;;;;5084657;28;20617;-85
2021/05/27 07:00:48;;;;;;;2.70;2.50;;;11.80;86.80;;;;;;5079808;28;20624;-85
2021/05/27 07:03:30;;;;;;;2.67;2.17;;;11.90;87.20;;;;;;5077510;28;20681;-88
2021/05/27 07:06:05;;;;;;;3.47;2.17;;;11.80;86.50;;;;;;5088187;28;20617;-84
2021/05/27 07:08:36;;;;;;;2.73;2.37;;;12.00;89.40;;;;;;5089957;28;20724;-86
2021/05/27 07:11:06;;;;;;;2.60;2.40;;;12.20;87.40;;;;;;5091323;28;20657;-86
2021/05/27 07:13:34;;;;;;;2.83;1.80;;;12.30;87.70;;;;;;5089095;28;20749;-86
2021/05/27 07:16:01;;;;;;;6.63;2.20;;;12.50;85.40;;;;;;5091796;28;20652;-85
2021/05/27 07:18:30;;;;;;;2.20;2.00;;;12.70;86.60;;;;;;5083827;28;20636;-85
2021/05/27 07:21:02;;;;;;;2.30;2.10;;;12.60;83.40;;;;;;5080579;28;20956;-87
2021/05/27 07:23:37;;;;;;;2.10;1.90;;;12.70;82.60;;;;;;5091508;28;21002;-86
2021/05/27 07:26:05;;;;;;;2.17;2.00;;;12.70;83.00;;;;;;5084825;28;20626;-86
2021/05/27 07:29:29;;;;;;;2.43;2.00;;;12.50;80.50;;;;;;5076460;28;21247;-87
2021/05/27 07:32:07;;;;;;;5.43;2.27;;;12.40;79.70;;;;;;5077393;28;20701;-85
2021/05/27 07:34:37;;;;;;;1.63;1.53;;;12.40;80.30;;;;;;5095502;28;20620;-87
2021/05/27 07:37:05;;;;;;;1.67;1.57;;;12.50;80.50;;;;;;5080484;28;20632;-86
2021/05/27 07:42:27;;;;;;;2.60;2.40;;;12.40;81.50;;;;;;5096197;28;21225;-88
2021/05/27 07:45:00;;;;;;;2.00;1.80;;;12.70;82.90;;;;;;5090785;28;20692;-86
2021/05/27 07:47:34;;;;;;;1.80;1.70;;;12.70;79.00;;;;;;5097188;28;20613;-86
2021/05/27 07:50:21;;;;;;;1.53;1.43;;;12.70;78.10;;;;;;5088714;28;20643;-86
2021/05/27 07:53:35;;;;;;;4.60;2.30;;;12.60;77.90;;;;;;5096366;28;21212;-87
2021/05/27 07:56:29;;;;;;;2.93;2.17;;;12.70;78.60;;;;;;5084325;28;20624;-87
2021/05/27 07:58:56;;;;;;;1.77;1.67;;;12.90;77.30;;;;;;5082204;28;20626;-88
2021/05/27 08:01:24;;;;;;;4.23;2.03;;;12.80;78.40;;;;;;5088467;28;20628;-86
2021/05/27 08:03:52;;;;;;;2.10;2.00;;;12.70;75.20;;;;;;5080352;28;21324;-88
2021/05/27 08:06:19;;;;;;;2.07;1.97;;;12.80;77.60;;;;;;5090993;28;20618;-87
2021/05/27 08:08:46;;;;;;;2.93;2.70;;;13.10;75.50;;;;;;5087807;28;20617;-87
2021/05/27 08:11:12;;;;;;;3.57;2.60;;;13.40;76.00;;;;;;5075422;28;21275;-85
2021/05/27 08:13:39;;;;;;;2.10;1.87;;;13.40;71.70;;;;;;5075589;28;21013;-85
2021/05/27 08:16:06;;;;;;;2.33;2.20;;;13.60;71.30;;;;;;5086440;28;20638;-85
2021/05/27 08:18:33;;;;;;;2.27;2.07;;;13.90;72.60;;;;;;5082161;28;20625;-87
2021/05/27 08:21:06;;;;;;;4.50;2.07;;;13.80;71.20;;;;;;5080900;28;21198;-87
2021/05/27 08:23:33;;;;;;;1.97;1.77;;;13.70;70.20;;;;;;5085390;28;21098;-88
2021/05/27 08:25:59;;;;;;;3.93;1.73;;;13.50;71.10;;;;;;5087773;28;20617;-87
2021/05/27 08:28:26;;;;;;;2.20;2.07;;;13.70;72.90;;;;;;5075828;28;20721;-88
2021/05/27 08:30:54;;;;;;;3.20;2.20;;;13.80;71.30;;;;;;5079149;28;21306;-89
2021/05/27 08:33:21;;;;;;;1.73;1.63;;;13.80;70.80;;;;;;5088828;28;20629;-87
2021/05/27 08:35:48;;;;;;;3.53;2.00;;;13.90;72.40;;;;;;5082506;28;20614;-87
2021/05/27 08:38:17;;;;;;;2.10;2.00;;;13.80;70.80;;;;;;5083383;28;20650;-87
2021/05/27 08:40:46;;;;;;;3.40;2.83;;;13.90;70.00;;;;;;5078087;28;20632;-87
2021/05/27 08:43:14;;;;;;;2.53;1.97;;;14.10;70.80;;;;;;5088419;28;20640;-87
2021/05/27 08:45:43;;;;;;;2.90;2.03;;;14.50;72.50;;;;;;5082845;28;20630;-86
2021/05/27 08:48:12;;;;;;;2.10;2.00;;;14.40;68.30;;;;;;5090782;28;20621;-87
2021/05/27 08:50:44;;;;;;;1.97;1.83;;;14.80;69.80;;;;;;5082850;28;20699;-88
2021/05/27 08:53:10;;;;;;;2.00;1.77;;;14.70;65.20;;;;;;5093352;28;20665;-87
2021/05/27 08:55:40;;;;;;;1.80;1.70;;;14.40;65.50;;;;;;5093278;28;20636;-88
2021/05/27 08:58:06;;;;;;;4.70;2.20;;;14.50;66.80;;;;;;5073990;28;20709;-88
2021/05/27 09:00:35;;;;;;;2.97;2.77;;;14.60;66.40;;;;;;5091385;28;21518;-88
2021/05/27 09:03:08;;;;;;;1.37;1.30;;;14.80;65.60;;;;;;5089577;28;20878;-88
2021/05/27 09:09:22;;;;;;;2.03;1.83;;;14.70;68.00;;;;;;4992287;28;20704;-89
2021/05/27 09:11:51;;;;;;;1.40;1.27;;;14.70;65.90;;;;;;5029516;28;20625;-88
2021/05/27 09:14:18;;;;;;;1.70;1.60;;;15.00;66.50;;;;;;5086664;28;21212;-87
2021/05/27 09:17:02;;;;;;;1.40;1.30;;;15.00;62.00;;;;;;5108758;28;20980;-88
2021/05/27 09:22:28;;;;;;;1.90;1.70;;;15.40;64.80;;;;;;5030769;28;20660;-92
2021/05/27 09:25:29;;;;;;;1.60;1.50;;;15.60;60.70;;;;;;5082340;28;21211;-90
2021/05/27 09:28:57;;;;;;;1.60;1.50;;;16.00;62.00;;;;;;5088438;28;20641;-90
2021/05/27 09:32:16;;;;;;;1.37;1.27;;;15.60;58.40;;;;;;5093281;28;20637;-90
2021/05/27 09:35:10;;;;;;;1.73;1.57;;;16.10;60.40;;;;;;5101169;28;20650;-89
2021/05/27 09:37:55;;;;;;;2.97;1.53;;;16.40;60.00;;;;;;5093774;28;20640;-91
2021/05/27 09:40:50;;;;;;;1.50;1.40;;;16.10;58.20;;;;;;5091715;28;21240;-89
2021/05/27 09:50:12;;;;;;;2.63;2.43;;;15.50;59.30;;;;;;5002256;28;20732;-90
2021/05/27 09:52:44;;;;;;;2.40;2.20;;;15.10;60.50;;;;;;5076227;28;20660;-89
2021/05/27 09:55:53;;;;;;;2.60;2.40;;;15.10;59.30;;;;;;5093445;28;20628;-88
2021/05/27 10:02:16;;;;;;;1.77;1.67;;;15.50;60.60;;;;;;4920254;28;20650;-89
2021/05/27 10:05:08;;;;;;;2.53;2.20;;;15.50;61.10;;;;;;5084208;28;20617;-90
2021/05/27 10:07:44;;;;;;;1.57;1.47;;;15.50;59.70;;;;;;5071406;28;20636;-89
2021/05/27 10:10:23;;;;;;;1.30;1.20;;;15.10;59.70;;;;;;5082492;28;21011;-89
2021/05/27 10:12:52;;;;;;;3.40;1.50;;;15.20;59.80;;;;;;5085261;28;20645;-89
2021/05/27 10:15:24;;;;;;;1.43;1.37;;;15.10;59.10;;;;;;5079265;28;20622;-90
2021/05/27 10:17:53;;;;;;;1.87;1.77;;;15.20;60.40;;;;;;5073618;28;20732;-88
2021/05/27 10:20:25;;;;;;;2.73;1.40;;;15.50;59.50;;;;;;5084361;28;21212;-88
2021/05/27 10:22:56;;;;;;;1.30;1.20;;;15.30;58.90;;;;;;5096047;28;20664;-89
2021/05/27 10:25:24;;;;;;;1.40;1.27;;;15.50;59.50;;;;;;5092709;28;21039;-89
2021/05/27 10:27:56;;;;;;;1.87;1.77;;;15.50;59.00;;;;;;5084132;28;20631;-89
2021/05/27 10:30:25;;;;;;;2.17;1.63;;;15.20;58.60;;;;;;5085319;28;20620;-89
2021/05/27 10:33:01;;;;;;;1.70;1.60;;;15.30;59.50;;;;;;5093940;28;20633;-88
2021/05/27 10:35:46;;;;;;;2.27;2.03;;;15.00;58.00;;;;;;5091843;28;20631;-89
2021/05/27 10:38:15;;;;;;;1.80;1.70;;;14.80;60.40;;;;;;5095177;28;20650;-89
2021/05/27 10:40:43;;;;;;;2.37;1.30;;;14.60;58.60;;;;;;5101746;28;20685;-89
2021/05/27 10:43:16;;;;;;;2.97;1.70;;;14.60;59.20;;;;;;5087447;28;20668;-89
2021/05/27 10:46:10;;;;;;;2.00;1.40;;;14.50;59.10;;;;;;5086764;28;20626;-88
2021/05/27 10:48:45;;;;;;;1.23;1.13;;;14.40;59.00;;;;;;5080550;28;20657;-88
2021/05/27 10:51:21;;;;;;;1.60;1.50;;;14.60;60.30;;;;;;5071964;28;20987;-88
2021/05/27 10:53:53;;;;;;;1.57;1.40;;;14.80;60.70;;;;;;5071291;28;20639;-89
2021/05/27 10:56:21;;;;;;;3.43;1.23;;;14.80;58.70;;;;;;5072050;28;21005;-89
2021/05/27 10:59:13;;;;;;;2.57;2.00;;;15.10;59.50;;;;;;5071537;28;20688;-89
2021/05/27 11:01:59;;;;;;;2.17;1.80;;;15.30;59.60;;;;;;5072841;28;20732;-90
2021/05/27 11:04:33;;;;;;;1.73;1.63;;;15.30;59.50;;;;;;5088095;28;20631;-89
2021/05/27 11:07:19;;;;;;;2.40;2.20;;;15.20;60.30;;;;;;5085996;28;20689;-89
2021/05/27 11:09:48;;;;;;;2.00;1.90;;;14.90;61.20;;;;;;5073861;28;20661;-89
2021/05/27 11:12:29;;;;;;;1.70;1.60;;;14.80;61.40;;;;;;5092343;28;20634;-89
2021/05/27 11:15:15;;;;;;;2.87;2.67;;;14.70;61.40;;;;;;5085880;28;21062;-89
2021/05/27 11:18:00;;;;;;;4.60;2.40;;;15.00;60.70;;;;;;5079235;28;21283;-89
2021/05/27 11:20:29;;;;;;;1.50;1.40;;;15.10;60.90;;;;;;5073496;28;21018;-90
2021/05/27 11:23:08;;;;;;;1.50;1.40;;;15.30;61.80;;;;;;5072288;28;20718;-91
2021/05/27 11:25:40;;;;;;;1.70;1.60;;;15.40;60.50;;;;;;5086789;28;20631;-90
2021/05/27 11:28:28;;;;;;;2.03;1.83;;;15.70;62.10;;;;;;5078623;28;21217;-88
2021/05/27 11:30:57;;;;;;;2.03;1.33;;;15.80;60.20;;;;;;5089645;28;20657;-88
2021/05/27 11:33:41;;;;;;;2.23;2.07;;;15.90;58.80;;;;;;5076179;28;20625;-89
2021/05/27 11:36:26;;;;;;;2.10;1.80;;;16.10;59.20;;;;;;5089671;28;20621;-89
2021/05/27 11:38:54;;;;;;;1.67;1.47;;;16.20;59.20;;;;;;5074073;28;21190;-90
2021/05/27 11:41:22;;;;;;;2.00;1.90;;;16.50;59.50;;;;;;5092334;28;20629;-89
2021/05/27 11:43:52;;;;;;;2.40;1.80;;;17.10;57.70;;;;;;5076712;28;21300;-88
2021/05/27 11:46:23;;;;;;;1.80;1.70;;;17.70;57.30;;;;;;5084585;28;20956;-89
2021/05/27 11:48:58;;;;;;;1.60;1.50;;;17.60;55.70;;;;;;5071441;28;20672;-89
2021/05/27 11:51:32;;;;;;;2.30;1.60;;;17.80;56.40;;;;;;5075242;28;20639;-89
2021/05/27 11:54:01;;;;;;;1.60;1.50;;;17.70;55.70;;;;;;5076792;28;20667;-89
2021/05/27 11:56:37;;;;;;;1.60;1.50;;;17.70;54.10;;;;;;5071975;28;20622;-90
2021/05/27 11:59:06;;;;;;;2.80;1.83;;;17.60;55.10;;;;;;5088464;28;20635;-91
2021/05/27 12:01:35;;;;;;;1.17;1.17;;;17.30;55.30;;;;;;5079256;28;20735;-89
2021/05/27 12:04:11;;;;;;;1.70;1.57;;;17.20;54.70;;;;;;5081228;28;20664;-90
2021/05/27 12:06:49;;;;;;;1.53;1.43;;;17.30;54.30;;;;;;5076202;28;20973;-91
2021/05/27 12:09:38;;;;;;;1.30;1.20;;;17.40;55.30;;;;;;5072123;28;20627;-90
2021/05/27 12:12:21;;;;;;;1.20;1.20;;;17.10;56.20;;;;;;5074019;28;20661;-89
2021/05/27 12:14:53;;;;;;;1.30;1.20;;;17.20;56.10;;;;;;5086394;28;20677;-87
2021/05/27 12:17:28;;;;;;;1.30;1.13;;;18.00;55.30;;;;;;5086478;28;20684;-90
2021/05/27 12:20:04;;;;;;;5.50;1.67;;;18.40;55.00;;;;;;5076686;28;20624;-90
2021/05/27 12:22:53;;;;;;;1.27;1.20;;;18.60;52.60;;;;;;5081077;28;20799;-91
2021/05/27 12:25:21;;;;;;;1.40;1.30;;;17.80;52.20;;;;;;5081599;28;20627;-90
2021/05/27 12:27:49;;;;;;;4.70;2.00;;;17.70;54.00;;;;;;5081244;28;20670;-90
2021/05/27 12:30:22;;;;;;;2.20;2.00;;;18.70;52.40;;;;;;5080404;28;20617;-91
2021/05/27 12:32:50;;;;;;;2.50;2.17;;;19.00;51.50;;;;;;5091067;28;20624;-91
2021/05/27 12:35:26;;;;;;;1.40;1.30;;;19.40;51.50;;;;;;5080121;28;20986;-91
2021/05/27 12:37:57;;;;;;;1.97;1.70;;;20.00;52.30;;;;;;5080714;28;20621;-90
2021/05/27 12:40:27;;;;;;;2.33;1.37;;;21.10;49.40;;;;;;5079780;28;20650;-91
2021/05/27 12:42:56;;;;;;;1.10;1.10;;;20.70;48.70;;;;;;5092075;28;21043;-91
2021/05/27 12:45:43;;;;;;;;;;;;;;;;;;;;;
2021/05/27 12:48:15;;;;;;;1.23;1.17;;;19.90;50.10;;;;;;5083158;28;20656;-90
2021/05/27 12:50:47;;;;;;;3.30;1.23;;;19.40;50.40;;;;;;5081794;28;21311;-91
2021/05/27 12:53:28;;;;;;;1.20;1.20;;;19.70;51.40;;;;;;5071425;28;20660;-91
2021/05/27 12:55:57;;;;;;;2.97;1.20;;;19.40;50.50;;;;;;5070632;28;20734;-90
2021/05/27 12:58:31;;;;;;;1.07;1.07;;;20.10;51.20;;;;;;5070915;28;20717;-90
2021/05/27 13:01:00;;;;;;;1.47;1.37;;;21.00;51.50;;;;;;5083415;28;20905;-90
2021/05/27 13:03:28;;;;;;;1.37;1.33;;;21.20;49.00;;;;;;5071128;28;21302;-90
2021/05/27 13:06:11;;;;;;;1.33;1.20;;;21.10;48.70;;;;;;5087534;28;20627;-90
2021/05/27 13:08:39;;;;;;;3.47;1.37;;;21.00;48.70;;;;;;5072501;28;20630;-89
2021/05/27 13:11:24;;;;;;;1.30;1.30;;;20.00;48.40;;;;;;5071288;28;21170;-91
2021/05/27 13:13:51;;;;;;;2.57;1.50;;;18.90;48.80;;;;;;5087225;28;20984;-90
2021/05/27 13:16:40;;;;;;;1.80;1.23;;;18.50;49.30;;;;;;5083027;28;20627;-90
2021/05/27 13:19:10;;;;;;;1.53;1.37;;;17.70;50.20;;;;;;5079615;28;20665;-90
2021/05/27 13:21:44;;;;;;;1.40;1.30;;;17.40;50.30;;;;;;5081432;28;20702;-90
2021/05/27 13:24:16;;;;;;;1.90;1.80;;;17.40;52.00;;;;;;5081589;28;20773;-90
2021/05/27 13:26:42;;;;;;;4.87;1.73;;;17.00;52.60;;;;;;5082960;28;20731;-91
2021/05/27 13:29:09;;;;;;;2.30;2.20;;;16.90;53.30;;;;;;5096648;28;20622;-90
2021/05/27 13:31:38;;;;;;;1.50;1.40;;;17.10;55.00;;;;;;5085451;28;20629;-90
2021/05/27 13:34:05;;;;;;;1.27;1.17;;;17.60;53.40;;;;;;5091863;28;20640;-91
2021/05/27 13:36:41;;;;;;;0.90;0.90;;;17.70;52.10;;;;;;5073868;28;20619;-90
2021/05/27 13:39:19;;;;;;;1.93;1.83;;;17.50;50.70;;;;;;5073963;28;20616;-90
2021/05/27 13:41:48;;;;;;;1.00;1.00;;;17.60;49.90;;;;;;5073932;28;20631;-90
2021/05/27 13:44:15;;;;;;;1.60;1.50;;;17.40;51.20;;;;;;5073605;28;20706;-90